Terminal Aerodrome Forecast
Issued by NWS

Home | Current Version | Previous Version | Text Only | Print | Product List | Glossary On
Versions: 1 2 3 4 5 6 7 8 9 10 11 12 13 14 15 16 17 18
000
FTUS42 KFFC 241304 AAA
TAFPDK
TAF AMD
KPDK 241304Z 2413/2512 00000KT 6SM BR OVC007
     FM241400 07003KT P6SM BKN012
     FM241500 07003KT P6SM VCSH BKN025
     FM241800 07003KT P6SM SHRA BKN040
      TEMPO 2420/2424 4SM -TSRA BKN015CB
     FM250100 00000KT P6SM BKN030
     FM250800 00000KT P6SM OVC006=

USA.gov is the U.S. government's official web portal to all federal, state and local government web resources and services.